Pagina principale
METAR-TAF:

METAR-TAF

Aeroporti :

Tabarka, Tunisia

latitudine: 36-57N, longitudine: 008-45E, altezza: 20 m

Osservazione

Il bollettino è stato emesso 1 ora e 7 minuti fa, alle 02:00 UTC
Vento 4 kt da sud-est con raffiche fino a 14 kt, variando fra est/nord-est e sud
Temperature 19°C
Umidità 64%
Pressione 996 hPa

METAR: DTKA 220200Z AUTO 13004G14KT 060V190 /// 19/12 Q0996

Ora: 04:07 (03:07 UTC)

Previsione

Il bollettino è stato emesso 3 ore e 7 minuti fa, alle 00:00 UTC
Previsione valida dal 22 alle 01 UTC al 22 alle 10 UTC
Vento 23 kt da est con raffiche fino a 33 kt
Visibilità: 8000 m
Nubi sparse ad un'altezza di 2000 ft
Probabilità 40% :
Temporaneamente
dal 22 alle 02 UTC al 22 alle 10 UTC
Vento 31 kt da est/sud-est con raffiche fino a 43 kt
Visibilità: 4000 m
groppi

TAF: DTKA 220000Z 2201/2210 09023G33KT 8000 SCT020 PROB40 TEMPO 2202/2210 12031G43KT 4000 SQ

Osservazioni e previsioni meteorologiche di più di 4000 aeroporti (messaggi METAR e TAF).

Le stazioni disponibili sono rappresentate dai dischi gialli e rossi sulla carta.

Puntare il mouse per vedere il nome della stazione.

Clicca sopra per visualizzare le osservazioni e previsioni meteorologiche.

Per cambiare la mappa : fare clic sui pulsanti verdi con una croce nera per ingrandire, il pulsante verde con un trattino per diminuire, o sulla freccia verde per le mappe adiacenti.


METAR-TAF: